createdAt,value
2022-08-02T00:01:28.345Z,100.00
2022-08-02T00:04:02.406Z,100.00
2022-08-02T00:06:31.286Z,100.00
2022-08-02T00:09:01.701Z,100.00
2022-08-02T00:11:32.086Z,100.00
2022-08-02T00:13:59.738Z,100.00
2022-08-02T00:16:38.233Z,100.00
2022-08-02T00:19:06.433Z,100.00
2022-08-02T00:21:33.830Z,100.00
2022-08-02T00:24:28.815Z,100.00
2022-08-02T00:26:53.930Z,100.00
2022-08-02T00:29:27.973Z,100.00
2022-08-02T00:31:58.060Z,100.00
2022-08-02T00:34:28.821Z,100.00
2022-08-02T00:37:03.702Z,100.00
2022-08-02T00:39:35.312Z,100.00
2022-08-02T00:42:07.633Z,100.00
2022-08-02T00:44:39.268Z,100.00
2022-08-02T00:47:09.226Z,100.00
2022-08-02T00:49:38.982Z,100.00
2022-08-02T00:52:06.720Z,100.00
2022-08-02T00:54:36.479Z,100.00
2022-08-02T00:57:05.030Z,100.00
2022-08-02T00:59:38.804Z,100.00
2022-08-02T01:02:09.355Z,100.00
2022-08-02T01:04:40.770Z,100.00
2022-08-02T01:07:12.843Z,100.00
2022-08-02T01:09:44.141Z,100.00
2022-08-02T01:12:12.846Z,100.00
2022-08-02T01:14:42.701Z,100.00
2022-08-02T01:17:29.824Z,100.00
2022-08-02T01:20:21.733Z,100.00
2022-08-02T01:23:08.917Z,100.00
2022-08-02T01:25:39.035Z,100.00
2022-08-02T01:28:33.976Z,100.00
2022-08-02T01:31:14.158Z,100.00
2022-08-02T01:33:51.672Z,100.00
2022-08-02T01:36:21.816Z,100.00
2022-08-02T01:38:56.868Z,100.00
2022-08-02T01:41:28.361Z,100.00
2022-08-02T01:44:00.139Z,100.00
2022-08-02T01:46:32.328Z,100.00
2022-08-02T01:49:07.377Z,100.00
2022-08-02T01:51:58.690Z,100.00
2022-08-02T01:54:33.573Z,100.00
2022-08-02T01:57:08.948Z,100.00
2022-08-02T01:59:48.662Z,100.00
2022-08-02T02:02:23.361Z,100.00
2022-08-02T02:04:57.718Z,100.00
2022-08-02T02:07:36.356Z,100.00
2022-08-02T02:10:05.827Z,100.00
2022-08-02T02:12:39.692Z,100.00
2022-08-02T02:15:12.144Z,100.00
2022-08-02T02:17:52.855Z,100.00
2022-08-02T02:20:34.837Z,100.00
2022-08-02T02:23:07.280Z,100.00
2022-08-02T02:25:46.549Z,100.00
2022-08-02T02:28:30.149Z,100.00
2022-08-02T02:31:09.938Z,100.00
2022-08-02T02:36:31.848Z,100.00
2022-08-02T02:39:13.531Z,100.00
2022-08-02T02:41:43.624Z,100.00
2022-08-02T02:44:22.230Z,100.00
2022-08-02T02:46:54.881Z,100.00
2022-08-02T02:49:30.258Z,100.00
2022-08-02T02:51:58.261Z,100.00
2022-08-02T02:54:34.092Z,100.00
2022-08-02T02:57:06.677Z,100.00
2022-08-02T02:59:49.158Z,100.00
2022-08-02T03:02:17.886Z,100.00
2022-08-02T03:04:56.377Z,100.00
2022-08-02T03:07:26.821Z,100.00
2022-08-02T03:09:56.549Z,100.00
2022-08-02T03:12:30.141Z,100.00
2022-08-02T03:15:00.942Z,100.00
2022-08-02T03:17:42.675Z,100.00
2022-08-02T03:20:18.193Z,100.00
2022-08-02T03:22:47.227Z,100.00
2022-08-02T03:25:16.227Z,100.00
2022-08-02T03:27:43.456Z,100.00
2022-08-02T03:30:13.036Z,100.00
2022-08-02T03:32:42.769Z,100.00
2022-08-02T03:35:14.074Z,100.00
2022-08-02T03:37:41.953Z,100.00
2022-08-02T03:40:13.196Z,100.00
2022-08-02T03:42:41.738Z,100.00
2022-08-02T03:45:11.320Z,100.00
2022-08-02T03:47:39.621Z,100.00
2022-08-02T03:50:15.731Z,100.00
2022-08-02T03:52:45.079Z,100.00
2022-08-02T03:55:13.340Z,100.00
2022-08-02T03:57:42.436Z,100.00
2022-08-02T04:00:13.274Z,100.00
2022-08-02T04:02:41.187Z,100.00
2022-08-02T04:05:09.258Z,100.00
2022-08-02T04:08:32.937Z,100.00
2022-08-02T04:10:23.789Z,100.00
2022-08-02T04:12:54.148Z,100.00
2022-08-02T04:15:23.553Z,100.00
2022-08-02T04:17:56.614Z,100.00
2022-08-02T04:20:33.594Z,100.00
2022-08-02T04:23:06.489Z,100.00
2022-08-02T04:25:40.163Z,100.00
2022-08-02T04:28:16.527Z,100.00
2022-08-02T04:30:50.851Z,100.00
2022-08-02T04:33:18.584Z,100.00
2022-08-02T04:35:47.095Z,100.00
2022-08-02T04:38:15.618Z,100.00
2022-08-02T04:40:55.243Z,100.00
2022-08-02T04:43:22.954Z,100.00
2022-08-02T04:45:55.624Z,100.00
2022-08-02T04:48:25.373Z,100.00
2022-08-02T04:50:52.635Z,100.00
2022-08-02T04:53:23.168Z,100.00
2022-08-02T04:55:52.334Z,100.00
2022-08-02T05:01:10.554Z,100.00
2022-08-02T05:03:37.772Z,100.00
2022-08-02T05:06:13.260Z,100.00
2022-08-02T05:08:52.475Z,100.00
2022-08-02T05:11:22.084Z,100.00
2022-08-02T05:13:58.804Z,100.00
2022-08-02T05:16:30.927Z,100.00
2022-08-02T05:19:00.979Z,100.00
2022-08-02T05:21:31.866Z,100.00
2022-08-02T05:24:04.151Z,100.00
2022-08-02T05:26:31.546Z,100.00
2022-08-02T05:28:59.296Z,100.00
2022-08-02T05:31:26.786Z,100.00
2022-08-02T05:33:56.678Z,100.00
2022-08-02T05:36:24.220Z,100.00
2022-08-02T05:39:04.698Z,100.00
2022-08-02T05:41:35.719Z,100.00
2022-08-02T05:44:03.771Z,100.00
2022-08-02T05:46:31.234Z,100.00
2022-08-02T05:49:01.605Z,100.00
2022-08-02T05:51:39.712Z,100.00
2022-08-02T05:54:27.936Z,100.00
2022-08-02T05:57:00.242Z,100.00
2022-08-02T05:59:56.586Z,100.00
2022-08-02T06:02:37.678Z,100.00
2022-08-02T06:05:11.236Z,100.00
2022-08-02T06:07:41.812Z,100.00
2022-08-02T06:10:10.405Z,100.00
2022-08-02T06:12:45.428Z,100.00
2022-08-02T06:15:21.389Z,100.00
2022-08-02T06:17:55.080Z,100.00
2022-08-02T06:20:24.129Z,100.00
2022-08-02T06:22:52.991Z,100.00
2022-08-02T06:25:48.194Z,100.00
2022-08-02T06:28:10.625Z,100.00
2022-08-02T06:30:39.560Z,100.00
2022-08-02T06:33:10.603Z,100.00
2022-08-02T06:35:46.312Z,100.00
2022-08-02T06:38:22.248Z,100.00
2022-08-02T06:41:03.349Z,100.00
2022-08-02T06:44:45.864Z,100.00
2022-08-02T06:47:11.700Z,100.00
2022-08-02T06:49:52.406Z,100.00
2022-08-02T06:52:34.332Z,100.00
2022-08-02T06:55:05.312Z,100.00
2022-08-02T06:57:33.862Z,100.00
2022-08-02T07:00:13.399Z,100.00
2022-08-02T07:02:42.226Z,100.00
2022-08-02T07:05:23.037Z,100.00
2022-08-02T07:07:54.897Z,100.00
2022-08-02T07:10:26.026Z,100.00
2022-08-02T07:13:18.105Z,100.00
2022-08-02T07:15:53.283Z,100.00
2022-08-02T07:18:29.551Z,100.00
2022-08-02T07:20:57.310Z,100.00
2022-08-02T07:23:28.953Z,100.00
2022-08-02T07:26:17.714Z,100.00
2022-08-02T07:28:55.036Z,100.00
2022-08-02T07:31:24.636Z,100.00
2022-08-02T07:34:04.246Z,100.00
2022-08-02T07:36:34.784Z,100.00
2022-08-02T07:39:04.720Z,100.00
2022-08-02T07:41:40.946Z,100.00
2022-08-02T07:44:08.296Z,100.00
2022-08-02T07:46:35.849Z,100.00
2022-08-02T07:49:05.890Z,100.00
2022-08-02T07:51:36.606Z,100.00
2022-08-02T07:54:04.948Z,100.00
2022-08-02T07:56:34.866Z,100.00
2022-08-02T07:59:02.115Z,100.00
2022-08-02T08:01:29.644Z,100.00
2022-08-02T08:03:57.247Z,100.00
2022-08-02T08:06:29.538Z,100.00
2022-08-02T08:08:57.614Z,100.00
2022-08-02T08:11:25.104Z,100.00
2022-08-02T08:13:52.563Z,100.00
2022-08-02T08:16:20.171Z,100.00
2022-08-02T08:18:47.939Z,100.00
2022-08-02T08:21:15.243Z,100.00
2022-08-02T08:23:42.670Z,100.00
2022-08-02T08:26:12.744Z,100.00
2022-08-02T08:28:45.475Z,100.00
2022-08-02T08:31:12.966Z,100.00
2022-08-02T08:33:40.807Z,100.00
2022-08-02T08:36:12.637Z,100.00
2022-08-02T08:38:42.684Z,100.00
2022-08-02T08:41:10.013Z,100.00
2022-08-02T08:43:37.428Z,100.00
2022-08-02T08:46:12.252Z,100.00
2022-08-02T08:48:46.366Z,100.00
2022-08-02T08:51:19.291Z,100.00
2022-08-02T08:53:54.138Z,100.00
2022-08-02T08:56:21.523Z,100.00
2022-08-02T08:58:48.992Z,100.00
2022-08-02T09:01:17.155Z,100.00
2022-08-02T09:03:48.007Z,100.00
2022-08-02T09:06:18.086Z,100.00
2022-08-02T09:08:45.600Z,100.00
2022-08-02T09:11:15.639Z,100.00
2022-08-02T09:14:09.337Z,100.00
2022-08-02T09:16:40.399Z,100.00
2022-08-02T09:19:21.807Z,100.00
2022-08-02T09:21:50.986Z,100.00
2022-08-02T09:24:23.519Z,100.00
2022-08-02T09:26:51.507Z,100.00
2022-08-02T09:29:24.473Z,100.00
2022-08-02T09:32:03.953Z,100.00
2022-08-02T09:34:57.745Z,100.00
2022-08-02T09:37:28.023Z,100.00
2022-08-02T09:40:03.654Z,100.00
2022-08-02T09:42:33.425Z,100.00
2022-08-02T09:45:02.319Z,100.00
2022-08-02T09:47:31.270Z,100.00
2022-08-02T09:50:00.981Z,100.00
2022-08-02T09:52:37.422Z,100.00
2022-08-02T09:55:11.247Z,100.00
2022-08-02T09:57:38.906Z,100.00
2022-08-02T10:00:13.997Z,100.00
2022-08-02T10:03:21.574Z,100.00
2022-08-02T10:06:01.125Z,100.00
2022-08-02T10:08:29.714Z,99.85
2022-08-02T10:11:01.166Z,99.12
2022-08-02T10:13:34.751Z,97.95
2022-08-02T10:16:03.765Z,97.20
2022-08-02T10:18:40.308Z,97.26
2022-08-02T10:21:16.487Z,96.65
2022-08-02T10:23:45.939Z,95.56
2022-08-02T10:26:16.756Z,96.09
2022-08-02T10:28:47.484Z,96.43
2022-08-02T10:31:21.374Z,96.59
2022-08-02T10:33:52.863Z,96.52
2022-08-02T10:36:27.073Z,96.37
2022-08-02T10:38:56.054Z,96.02
2022-08-02T10:41:56.894Z,95.84
2022-08-02T10:44:43.290Z,95.85
2022-08-02T10:47:18.656Z,95.37
2022-08-02T10:50:05.562Z,95.62
2022-08-02T10:52:33.122Z,95.45
2022-08-02T10:55:04.491Z,94.88
2022-08-02T10:57:46.978Z,94.88
2022-08-02T11:00:23.553Z,94.37
2022-08-02T11:02:54.563Z,93.86
2022-08-02T11:05:29.342Z,93.40
2022-08-02T11:08:32.504Z,92.91
2022-08-02T11:11:10.644Z,92.75
2022-08-02T11:14:01.729Z,91.86
2022-08-02T11:16:57.699Z,91.22
2022-08-02T11:19:25.388Z,91.08
2022-08-02T11:22:11.401Z,90.77
2022-08-02T11:24:40.353Z,90.29
2022-08-02T11:27:18.506Z,89.71
2022-08-02T11:29:49.754Z,89.60
2022-08-02T11:32:21.232Z,89.58
2022-08-02T11:34:53.907Z,89.41
2022-08-02T11:37:40.585Z,89.58
2022-08-02T11:40:19.500Z,89.94
2022-08-02T11:42:51.235Z,90.20
2022-08-02T11:45:29.404Z,90.20
2022-08-02T11:47:59.751Z,90.35
2022-08-02T11:50:29.626Z,90.52
2022-08-02T11:52:59.145Z,90.99
2022-08-02T11:55:31.082Z,91.62
2022-08-02T11:58:05.774Z,92.32
2022-08-02T12:00:34.189Z,93.38
2022-08-02T12:03:06.770Z,94.29
2022-08-02T12:06:04.405Z,95.09
2022-08-02T12:08:25.937Z,96.46
2022-08-02T12:10:53.482Z,97.21
2022-08-02T12:13:20.845Z,98.32
2022-08-02T12:15:50.645Z,98.80
2022-08-02T12:18:39.906Z,99.28
2022-08-02T12:21:25.042Z,99.74
2022-08-02T12:23:59.813Z,99.00
2022-08-02T12:26:33.691Z,98.06
2022-08-02T12:29:04.181Z,97.24
2022-08-02T12:31:56.430Z,97.50
2022-08-02T12:34:31.602Z,97.56
2022-08-02T12:37:10.290Z,98.43
2022-08-02T12:39:43.272Z,99.73
2022-08-02T12:42:13.637Z,100.00
2022-08-02T12:45:10.812Z,100.00
2022-08-02T12:47:49.131Z,100.00
2022-08-02T12:50:16.417Z,100.00
2022-08-02T12:52:47.078Z,100.00
2022-08-02T12:55:59.789Z,100.00
2022-08-02T12:58:15.218Z,100.00
2022-08-02T13:00:57.426Z,100.00
2022-08-02T13:04:11.578Z,100.00
2022-08-02T13:06:40.595Z,100.00
2022-08-02T13:09:02.060Z,100.00
2022-08-02T13:11:31.486Z,100.00
2022-08-02T13:14:02.398Z,100.00
2022-08-02T13:16:31.603Z,100.00
2022-08-02T13:18:59.734Z,100.00
2022-08-02T13:21:40.049Z,100.00
2022-08-02T13:24:38.218Z,100.00
2022-08-02T13:27:05.226Z,100.00
2022-08-02T13:29:39.498Z,99.40
2022-08-02T13:32:07.769Z,97.99
2022-08-02T13:34:35.791Z,96.86
2022-08-02T13:37:09.450Z,95.83
2022-08-02T13:39:39.154Z,94.97
2022-08-02T13:42:07.613Z,93.94
2022-08-02T13:44:35.360Z,92.99
2022-08-02T13:47:03.324Z,92.32
2022-08-02T13:49:33.541Z,91.78
2022-08-02T13:52:19.058Z,91.34
2022-08-02T13:54:49.620Z,90.65
2022-08-02T13:57:17.051Z,90.21
2022-08-02T13:59:56.153Z,89.69
2022-08-02T14:02:28.403Z,89.52
2022-08-02T14:04:57.067Z,90.51
2022-08-02T14:07:38.842Z,91.60
2022-08-02T14:10:11.940Z,92.67
2022-08-02T14:12:39.213Z,93.12
2022-08-02T14:15:07.182Z,93.41
2022-08-02T14:17:38.512Z,93.74
2022-08-02T14:20:06.579Z,93.64
2022-08-02T14:22:36.486Z,93.30
2022-08-02T14:25:14.131Z,93.20
2022-08-02T14:27:46.091Z,93.01
2022-08-02T14:30:13.891Z,93.04
2022-08-02T14:32:41.287Z,93.64
2022-08-02T14:35:12.135Z,94.29
2022-08-02T14:37:39.831Z,94.98
2022-08-02T14:40:28.035Z,95.66
2022-08-02T14:42:55.534Z,96.28
2022-08-02T14:45:24.997Z,96.08
2022-08-02T14:47:52.173Z,96.00
2022-08-02T14:50:20.040Z,95.73
2022-08-02T14:52:51.497Z,95.32
2022-08-02T14:55:22.314Z,94.82
2022-08-02T14:57:52.320Z,94.04
2022-08-02T15:00:22.229Z,93.42
2022-08-02T15:02:49.401Z,92.78
2022-08-02T15:05:19.837Z,91.90
2022-08-02T15:07:49.895Z,91.13
2022-08-02T15:10:19.304Z,90.18
2022-08-02T15:12:48.924Z,89.56
2022-08-02T15:15:16.285Z,89.91
2022-08-02T15:17:48.175Z,89.98
2022-08-02T15:20:24.842Z,90.34
2022-08-02T15:23:04.262Z,91.06
2022-08-02T15:25:31.677Z,92.08
2022-08-02T15:28:05.121Z,92.70
2022-08-02T15:30:38.350Z,93.33
2022-08-02T15:33:06.702Z,93.80
2022-08-02T15:35:34.307Z,94.12
2022-08-02T15:38:06.320Z,94.77
2022-08-02T15:40:35.623Z,95.35
2022-08-02T15:43:06.327Z,95.77
2022-08-02T15:45:35.530Z,96.06
2022-08-02T15:48:04.498Z,96.37
2022-08-02T15:50:37.649Z,96.80
2022-08-02T15:53:07.862Z,97.18
2022-08-02T15:55:40.050Z,97.93
2022-08-02T15:58:26.411Z,98.35
2022-08-02T16:00:57.561Z,98.83
2022-08-02T16:03:26.550Z,98.95
2022-08-02T16:05:53.805Z,99.41
2022-08-02T16:08:21.155Z,99.55
2022-08-02T16:10:50.590Z,99.73
2022-08-02T16:13:41.040Z,100.00
2022-08-02T16:16:23.435Z,100.00
2022-08-02T16:18:53.774Z,100.00
2022-08-02T16:21:26.899Z,100.00
2022-08-02T16:24:02.769Z,100.00
2022-08-02T16:26:34.314Z,100.00
2022-08-02T16:29:04.930Z,100.00
2022-08-02T16:31:43.711Z,100.00
2022-08-02T16:34:14.563Z,100.00
2022-08-02T16:36:52.421Z,100.00
2022-08-02T16:39:19.931Z,100.00
2022-08-02T16:41:52.643Z,100.00
2022-08-02T16:44:29.455Z,100.00
2022-08-02T16:47:00.843Z,100.00
2022-08-02T16:50:05.395Z,100.00
2022-08-02T16:52:28.265Z,100.00
2022-08-02T16:55:01.689Z,100.00
2022-08-02T16:57:43.195Z,100.00
2022-08-02T17:00:15.601Z,100.00
2022-08-02T17:02:43.494Z,100.00
2022-08-02T17:05:14.381Z,100.00
2022-08-02T17:08:07.864Z,100.00
2022-08-02T17:10:37.460Z,100.00
2022-08-02T17:13:11.668Z,100.00
2022-08-02T17:16:15.815Z,100.00
2022-08-02T17:18:47.138Z,100.00
2022-08-02T17:21:18.235Z,100.00
2022-08-02T17:24:06.073Z,100.00
2022-08-02T17:26:33.965Z,100.00
2022-08-02T17:29:15.142Z,100.00
2022-08-02T17:32:12.051Z,100.00
2022-08-02T17:34:35.526Z,100.00
2022-08-02T17:37:06.136Z,100.00
2022-08-02T17:39:44.021Z,100.00
2022-08-02T17:42:23.245Z,100.00
2022-08-02T17:44:53.295Z,100.00
2022-08-02T17:47:30.980Z,100.00
2022-08-02T17:49:58.927Z,100.00
2022-08-02T17:52:49.976Z,100.00
2022-08-02T17:55:19.986Z,100.00
2022-08-02T17:58:33.453Z,100.00
2022-08-02T18:01:24.205Z,100.00
2022-08-02T18:03:57.803Z,100.00
2022-08-02T18:06:31.668Z,100.00
2022-08-02T18:22:09.735Z,100.00
2022-08-02T18:24:40.514Z,100.00
2022-08-02T18:27:14.686Z,100.00
2022-08-02T18:30:00.491Z,100.00
2022-08-02T18:33:54.618Z,100.00
2022-08-02T18:35:23.712Z,100.00
2022-08-02T18:37:57.212Z,100.00
2022-08-02T18:40:30.861Z,100.00
2022-08-02T18:42:58.391Z,100.00
2022-08-02T18:46:04.471Z,100.00
2022-08-02T18:48:17.340Z,100.00
2022-08-02T18:50:48.183Z,100.00
2022-08-02T18:53:39.247Z,100.00
2022-08-02T18:56:06.409Z,100.00
2022-08-02T18:58:35.174Z,100.00
2022-08-02T19:01:05.041Z,100.00
2022-08-02T19:03:49.323Z,100.00
2022-08-02T19:06:19.799Z,100.00
2022-08-02T19:09:06.163Z,100.00
2022-08-02T19:11:47.223Z,100.00
2022-08-02T19:17:54.453Z,100.00
2022-08-02T19:19:56.069Z,100.00
2022-08-02T19:22:23.385Z,100.00
2022-08-02T19:24:56.398Z,100.00
2022-08-02T19:27:32.727Z,100.00
2022-08-02T19:30:07.368Z,100.00
2022-08-02T19:32:58.541Z,100.00
2022-08-02T19:35:34.285Z,100.00
2022-08-02T19:38:07.600Z,100.00
2022-08-02T19:40:38.823Z,100.00
2022-08-02T19:44:21.132Z,100.00
2022-08-02T19:45:58.351Z,100.00
2022-08-02T19:48:27.214Z,100.00
2022-08-02T19:51:01.958Z,100.00
2022-08-02T19:53:47.936Z,100.00
2022-08-02T19:56:24.876Z,100.00
2022-08-02T19:58:54.884Z,100.00
2022-08-02T20:01:37.221Z,100.00
2022-08-02T20:04:13.597Z,100.00
2022-08-02T20:06:45.515Z,100.00
2022-08-02T20:12:06.721Z,100.00
2022-08-02T20:14:50.958Z,100.00
2022-08-02T20:17:20.865Z,100.00
2022-08-02T20:19:50.238Z,100.00
2022-08-02T20:22:22.704Z,100.00
2022-08-02T20:24:50.262Z,100.00
2022-08-02T20:27:23.080Z,100.00
2022-08-02T20:29:53.497Z,100.00
2022-08-02T20:32:23.905Z,100.00
2022-08-02T20:34:52.689Z,100.00
2022-08-02T20:37:59.271Z,100.00
2022-08-02T20:40:16.873Z,100.00
2022-08-02T20:42:47.749Z,100.00
2022-08-02T20:45:19.003Z,100.00
2022-08-02T20:47:50.998Z,100.00
2022-08-02T20:50:39.822Z,100.00
2022-08-02T20:53:23.543Z,100.00
2022-08-02T20:55:59.565Z,100.00
2022-08-02T20:58:29.356Z,100.00
2022-08-02T21:01:01.577Z,100.00
2022-08-02T21:03:39.203Z,100.00
2022-08-02T21:06:16.933Z,100.00
2022-08-02T21:09:05.807Z,100.00
2022-08-02T21:11:36.029Z,100.00
2022-08-02T21:14:07.876Z,100.00
2022-08-02T21:16:36.555Z,100.00
2022-08-02T21:19:12.766Z,100.00
2022-08-02T21:21:41.081Z,100.00
2022-08-02T21:24:12.255Z,100.00
2022-08-02T21:26:40.467Z,100.00
2022-08-02T21:29:09.381Z,100.00
2022-08-02T21:31:36.910Z,100.00
2022-08-02T21:34:21.918Z,100.00
2022-08-02T21:36:57.218Z,100.00
2022-08-02T21:39:24.785Z,100.00
2022-08-02T21:41:54.434Z,100.00
2022-08-02T21:44:25.083Z,100.00
2022-08-02T21:46:54.921Z,100.00
2022-08-02T21:49:27.277Z,100.00
2022-08-02T21:52:08.924Z,100.00
2022-08-02T21:54:41.167Z,100.00
2022-08-02T21:57:16.143Z,100.00
2022-08-02T21:59:48.545Z,100.00
2022-08-02T22:02:22.265Z,100.00
2022-08-02T22:05:02.611Z,100.00
2022-08-02T22:07:38.224Z,100.00
2022-08-02T22:10:08.972Z,100.00
2022-08-02T22:12:36.743Z,100.00
2022-08-02T22:15:10.551Z,100.00
2022-08-02T22:17:51.317Z,100.00
2022-08-02T22:20:29.915Z,100.00
2022-08-02T22:22:59.645Z,100.00
2022-08-02T22:25:36.954Z,100.00
2022-08-02T22:28:37.714Z,100.00
2022-08-02T22:31:05.308Z,100.00
2022-08-02T22:34:01.194Z,100.00
2022-08-02T22:36:30.633Z,100.00
2022-08-02T22:38:59.041Z,100.00
2022-08-02T22:42:00.233Z,100.00
2022-08-02T22:44:18.859Z,100.00
2022-08-02T22:46:50.290Z,100.00
2022-08-02T22:49:45.419Z,100.00
2022-08-02T22:52:05.465Z,100.00
2022-08-02T22:54:32.979Z,100.00
2022-08-02T22:57:00.274Z,100.00
2022-08-02T22:58:54.654Z,100.00
2022-08-02T22:58:59.257Z,100.00
2022-08-02T22:59:39.078Z,100.00
2022-08-02T23:02:11.640Z,100.00
2022-08-02T23:04:40.288Z,100.00
2022-08-02T23:07:07.643Z,100.00
2022-08-02T23:09:37.027Z,100.00
2022-08-02T23:12:07.024Z,100.00
2022-08-02T23:14:35.319Z,100.00
2022-08-02T23:17:20.927Z,100.00
2022-08-02T23:19:51.239Z,100.00
2022-08-02T23:22:29.219Z,100.00
2022-08-02T23:25:02.195Z,100.00
2022-08-02T23:27:35.971Z,100.00
2022-08-02T23:30:05.496Z,100.00
2022-08-02T23:32:35.391Z,100.00
2022-08-02T23:35:06.856Z,100.00
2022-08-02T23:37:58.325Z,100.00
2022-08-02T23:40:39.634Z,100.00
2022-08-02T23:43:14.175Z,100.00
2022-08-02T23:45:46.179Z,100.00
2022-08-02T23:48:13.908Z,100.00
2022-08-02T23:50:43.376Z,100.00
2022-08-02T23:53:10.869Z,100.00
2022-08-02T23:55:38.263Z,100.00
2022-08-02T23:58:05.558Z,100.00
